sensor_id;sensor_type;location;lat;lon;timestamp;pressure;altitude;pressure_sealevel;temperature;humidity
70343;BME280;57767;42.068;24.752;2024-02-23T00:00:06;98801.91;;;5.68;72.10
70343;BME280;57767;42.068;24.752;2024-02-23T00:01:08;98792.75;;;5.64;71.55
70343;BME280;57767;42.068;24.752;2024-02-23T00:02:12;98796.03;;;5.66;70.57
70343;BME280;57767;42.068;24.752;2024-02-23T00:03:14;98802.72;;;5.68;71.34
70343;BME280;57767;42.068;24.752;2024-02-23T00:04:16;98802.91;;;5.67;71.96
70343;BME280;57767;42.068;24.752;2024-02-23T00:05:17;98797.72;;;5.59;71.96
70343;BME280;57767;42.068;24.752;2024-02-23T00:06:20;98789.41;;;5.55;72.39
70343;BME280;57767;42.068;24.752;2024-02-23T00:07:22;98789.25;;;5.57;72.84
70343;BME280;57767;42.068;24.752;2024-02-23T00:08:24;98797.63;;;5.52;73.00
70343;BME280;57767;42.068;24.752;2024-02-23T00:09:25;98798.94;;;5.48;73.84
70343;BME280;57767;42.068;24.752;2024-02-23T00:10:28;98801.09;;;5.45;73.28
70343;BME280;57767;42.068;24.752;2024-02-23T00:11:29;98795.88;;;5.45;72.46
70343;BME280;57767;42.068;24.752;2024-02-23T00:12:32;98797.50;;;5.46;73.24
70343;BME280;57767;42.068;24.752;2024-02-23T00:13:33;98789.47;;;5.47;73.46
70343;BME280;57767;42.068;24.752;2024-02-23T00:14:35;98791.59;;;5.29;74.31
70343;BME280;57767;42.068;24.752;2024-02-23T00:15:39;98796.00;;;5.28;74.59
70343;BME280;57767;42.068;24.752;2024-02-23T00:16:41;98801.69;;;5.32;75.21
70343;BME280;57767;42.068;24.752;2024-02-23T00:17:42;98788.81;;;5.30;75.25
70343;BME280;57767;42.068;24.752;2024-02-23T00:18:44;98801.53;;;5.33;73.68
70343;BME280;57767;42.068;24.752;2024-02-23T00:19:46;98804.13;;;5.33;73.86
70343;BME280;57767;42.068;24.752;2024-02-23T00:20:48;98797.66;;;5.29;73.91
70343;BME280;57767;42.068;24.752;2024-02-23T00:21:50;98805.50;;;5.29;74.74
70343;BME280;57767;42.068;24.752;2024-02-23T00:22:52;98799.28;;;5.30;74.46
70343;BME280;57767;42.068;24.752;2024-02-23T00:23:54;98801.25;;;5.28;73.02
70343;BME280;57767;42.068;24.752;2024-02-23T00:24:56;98802.06;;;5.29;72.35
70343;BME280;57767;42.068;24.752;2024-02-23T00:25:58;98799.72;;;5.34;73.31
70343;BME280;57767;42.068;24.752;2024-02-23T00:26:59;98790.94;;;5.27;74.20
70343;BME280;57767;42.068;24.752;2024-02-23T00:28:01;98788.22;;;5.20;74.56
70343;BME280;57767;42.068;24.752;2024-02-23T00:29:02;98786.13;;;5.16;75.11
70343;BME280;57767;42.068;24.752;2024-02-23T00:30:05;98777.50;;;5.07;75.38
70343;BME280;57767;42.068;24.752;2024-02-23T00:31:07;98786.88;;;5.01;76.76
70343;BME280;57767;42.068;24.752;2024-02-23T00:32:08;98786.53;;;5.04;76.66
70343;BME280;57767;42.068;24.752;2024-02-23T00:33:10;98743.66;;;4.83;76.78
70343;BME280;57767;42.068;24.752;2024-02-23T00:34:12;98767.63;;;4.94;76.75
70343;BME280;57767;42.068;24.752;2024-02-23T00:35:15;98777.16;;;4.87;76.49
70343;BME280;57767;42.068;24.752;2024-02-23T00:36:16;98775.19;;;4.89;77.70
70343;BME280;57767;42.068;24.752;2024-02-23T00:37:18;98767.50;;;4.88;78.14
70343;BME280;57767;42.068;24.752;2024-02-23T00:38:19;98770.94;;;4.88;77.82
70343;BME280;57767;42.068;24.752;2024-02-23T00:39:21;98777.31;;;4.86;77.38
70343;BME280;57767;42.068;24.752;2024-02-23T00:40:23;98777.16;;;4.87;77.91
70343;BME280;57767;42.068;24.752;2024-02-23T00:41:25;98769.47;;;4.86;77.99
70343;BME280;57767;42.068;24.752;2024-02-23T00:42:26;98764.97;;;4.80;78.65
70343;BME280;57767;42.068;24.752;2024-02-23T00:43:28;98767.41;;;4.81;78.13
70343;BME280;57767;42.068;24.752;2024-02-23T00:44:32;98771.13;;;4.87;78.17
70343;BME280;57767;42.068;24.752;2024-02-23T00:45:34;98764.41;;;4.84;78.08
70343;BME280;57767;42.068;24.752;2024-02-23T00:46:36;98762.34;;;4.80;77.93
70343;BME280;57767;42.068;24.752;2024-02-23T00:47:37;98766.44;;;4.74;78.04
70343;BME280;57767;42.068;24.752;2024-02-23T00:48:39;98763.66;;;4.76;78.40
70343;BME280;57767;42.068;24.752;2024-02-23T00:49:41;98767.91;;;4.77;77.63
70343;BME280;57767;42.068;24.752;2024-02-23T00:50:43;98771.13;;;4.87;78.21
70343;BME280;57767;42.068;24.752;2024-02-23T00:51:44;98763.09;;;4.88;77.46
70343;BME280;57767;42.068;24.752;2024-02-23T00:52:46;98760.66;;;4.87;77.53
70343;BME280;57767;42.068;24.752;2024-02-23T00:53:47;98762.09;;;4.89;77.95
70343;BME280;57767;42.068;24.752;2024-02-23T00:54:49;98758.34;;;4.92;77.72
70343;BME280;57767;42.068;24.752;2024-02-23T00:55:51;98760.41;;;4.96;77.32
70343;BME280;57767;42.068;24.752;2024-02-23T00:56:52;98764.78;;;5.04;76.76
70343;BME280;57767;42.068;24.752;2024-02-23T00:57:57;98756.94;;;5.04;76.42
70343;BME280;57767;42.068;24.752;2024-02-23T00:59:00;98753.16;;;5.07;75.67
70343;BME280;57767;42.068;24.752;2024-02-23T01:00:03;98761.94;;;5.14;74.93
70343;BME280;57767;42.068;24.752;2024-02-23T01:01:06;98766.69;;;5.10;74.81
70343;BME280;57767;42.068;24.752;2024-02-23T01:02:08;98750.72;;;5.05;75.18
70343;BME280;57767;42.068;24.752;2024-02-23T01:03:10;98764.88;;;5.11;75.25
70343;BME280;57767;42.068;24.752;2024-02-23T01:04:11;98750.47;;;5.15;74.64
70343;BME280;57767;42.068;24.752;2024-02-23T01:05:13;98749.31;;;5.17;74.33
70343;BME280;57767;42.068;24.752;2024-02-23T01:06:15;98756.34;;;5.17;74.18
70343;BME280;57767;42.068;24.752;2024-02-23T01:07:18;98746.31;;;5.20;74.59
70343;BME280;57767;42.068;24.752;2024-02-23T01:08:20;98744.72;;;5.19;73.46
70343;BME280;57767;42.068;24.752;2024-02-23T01:09:21;98753.19;;;5.21;72.91
70343;BME280;57767;42.068;24.752;2024-02-23T01:10:23;98756.28;;;5.25;72.97
70343;BME280;57767;42.068;24.752;2024-02-23T01:11:24;98752.66;;;5.26;73.43
70343;BME280;57767;42.068;24.752;2024-02-23T01:12:27;98743.38;;;5.23;73.11
70343;BME280;57767;42.068;24.752;2024-02-23T01:13:29;98744.00;;;5.25;73.49
70343;BME280;57767;42.068;24.752;2024-02-23T01:14:31;98747.91;;;5.29;73.80
70343;BME280;57767;42.068;24.752;2024-02-23T01:15:33;98733.06;;;5.22;73.23
70343;BME280;57767;42.068;24.752;2024-02-23T01:16:35;98743.00;;;5.26;73.56
70343;BME280;57767;42.068;24.752;2024-02-23T01:17:37;98738.59;;;5.27;73.03
70343;BME280;57767;42.068;24.752;2024-02-23T01:18:39;98742.97;;;5.12;73.02
70343;BME280;57767;42.068;24.752;2024-02-23T01:19:42;98746.69;;;4.94;74.98
70343;BME280;57767;42.068;24.752;2024-02-23T01:20:44;98736.47;;;4.85;75.12
70343;BME280;57767;42.068;24.752;2024-02-23T01:21:46;98737.41;;;4.92;75.30
70343;BME280;57767;42.068;24.752;2024-02-23T01:22:48;98737.84;;;4.95;74.90
70343;BME280;57767;42.068;24.752;2024-02-23T01:23:49;98734.72;;;5.00;74.44
70343;BME280;57767;42.068;24.752;2024-02-23T01:24:51;98730.31;;;5.00;74.09
70343;BME280;57767;42.068;24.752;2024-02-23T01:25:53;98727.69;;;5.00;73.90
70343;BME280;57767;42.068;24.752;2024-02-23T01:26:55;98726.69;;;5.01;73.87
70343;BME280;57767;42.068;24.752;2024-02-23T01:27:57;98731.41;;;5.06;72.92
70343;BME280;57767;42.068;24.752;2024-02-23T01:28:59;98731.22;;;5.08;73.26
70343;BME280;57767;42.068;24.752;2024-02-23T01:30:00;98729.97;;;5.03;73.47
70343;BME280;57767;42.068;24.752;2024-02-23T01:31:03;98730.19;;;4.94;74.49
70343;BME280;57767;42.068;24.752;2024-02-23T01:32:08;98734.06;;;4.98;74.28
70343;BME280;57767;42.068;24.752;2024-02-23T01:33:10;98728.66;;;4.99;74.50
70343;BME280;57767;42.068;24.752;2024-02-23T01:34:12;98725.06;;;5.00;74.16
70343;BME280;57767;42.068;24.752;2024-02-23T01:35:13;98737.97;;;5.02;74.45
70343;BME280;57767;42.068;24.752;2024-02-23T01:36:15;98737.81;;;5.03;74.33
70343;BME280;57767;42.068;24.752;2024-02-23T01:37:17;98732.75;;;5.02;73.63
70343;BME280;57767;42.068;24.752;2024-02-23T01:38:18;98732.84;;;5.09;72.93
70343;BME280;57767;42.068;24.752;2024-02-23T01:39:22;98737.63;;;5.05;74.02
70343;BME280;57767;42.068;24.752;2024-02-23T01:40:24;98738.44;;;5.06;74.27
70343;BME280;57767;42.068;24.752;2024-02-23T01:41:25;98734.22;;;5.04;74.29
70343;BME280;57767;42.068;24.752;2024-02-23T01:42:27;98740.53;;;5.10;73.93
70343;BME280;57767;42.068;24.752;2024-02-23T01:43:28;98732.03;;;5.08;73.62
70343;BME280;57767;42.068;24.752;2024-02-23T01:44:30;98736.91;;;5.11;73.90
70343;BME280;57767;42.068;24.752;2024-02-23T01:45:32;98732.03;;;5.08;73.87
70343;BME280;57767;42.068;24.752;2024-02-23T01:46:34;98743.78;;;5.12;74.54
70343;BME280;57767;42.068;24.752;2024-02-23T01:47:35;98732.66;;;5.10;73.97
70343;BME280;57767;42.068;24.752;2024-02-23T01:48:37;98732.50;;;5.12;74.67
70343;BME280;57767;42.068;24.752;2024-02-23T01:49:39;98737.56;;;5.13;74.49
70343;BME280;57767;42.068;24.752;2024-02-23T01:50:42;98730.06;;;5.10;73.73
70343;BME280;57767;42.068;24.752;2024-02-23T01:51:44;98730.06;;;5.10;74.17
70343;BME280;57767;42.068;24.752;2024-02-23T01:52:45;98730.31;;;5.00;74.29
70343;BME280;57767;42.068;24.752;2024-02-23T01:53:47;98730.81;;;4.96;75.17
70343;BME280;57767;42.068;24.752;2024-02-23T01:54:49;98723.03;;;4.88;75.36
70343;BME280;57767;42.068;24.752;2024-02-23T01:55:51;98728.91;;;4.90;76.01
70343;BME280;57767;42.068;24.752;2024-02-23T01:56:55;98727.75;;;4.92;75.43
70343;BME280;57767;42.068;24.752;2024-02-23T01:57:58;98722.34;;;4.94;74.77
70343;BME280;57767;42.068;24.752;2024-02-23T01:59:02;98724.59;;;4.97;74.23
70343;BME280;57767;42.068;24.752;2024-02-23T02:00:06;98719.38;;;4.97;74.67
70343;BME280;57767;42.068;24.752;2024-02-23T02:01:08;98720.66;;;5.01;74.62
70343;BME280;57767;42.068;24.752;2024-02-23T02:02:10;98719.38;;;4.97;74.62
70343;BME280;57767;42.068;24.752;2024-02-23T02:03:11;98711.88;;;4.94;75.17
70343;BME280;57767;42.068;24.752;2024-02-23T02:04:13;98709.63;;;4.91;74.79
70343;BME280;57767;42.068;24.752;2024-02-23T02:05:15;98716.09;;;4.95;75.18
70343;BME280;57767;42.068;24.752;2024-02-23T02:06:17;98716.09;;;4.95;74.63
70343;BME280;57767;42.068;24.752;2024-02-23T02:07:19;98712.56;;;4.88;74.87
70343;BME280;57767;42.068;24.752;2024-02-23T02:08:26;98712.09;;;4.84;74.44
70343;BME280;57767;42.068;24.752;2024-02-23T02:09:28;98714.19;;;4.89;74.00
70343;BME280;57767;42.068;24.752;2024-02-23T02:10:29;98705.41;;;4.82;74.49
70343;BME280;57767;42.068;24.752;2024-02-23T02:11:31;98708.31;;;4.87;74.38
70343;BME280;57767;42.068;24.752;2024-02-23T02:12:32;98708.63;;;4.92;73.91
70343;BME280;57767;42.068;24.752;2024-02-23T02:13:34;98708.63;;;4.92;73.89
70343;BME280;57767;42.068;24.752;2024-02-23T02:14:36;98715.19;;;4.88;74.41
70343;BME280;57767;42.068;24.752;2024-02-23T02:15:40;98705.78;;;4.79;74.61
70343;BME280;57767;42.068;24.752;2024-02-23T02:16:44;98704.84;;;4.72;74.40
70343;BME280;57767;42.068;24.752;2024-02-23T02:17:46;98710.38;;;4.77;74.47
70343;BME280;57767;42.068;24.752;2024-02-23T02:18:48;98707.09;;;4.75;74.50
70343;BME280;57767;42.068;24.752;2024-02-23T02:19:50;98705.13;;;4.77;74.98
70343;BME280;57767;42.068;24.752;2024-02-23T02:20:54;98701.53;;;4.78;74.12
70343;BME280;57767;42.068;24.752;2024-02-23T02:21:56;98712.00;;;4.78;73.47
70343;BME280;57767;42.068;24.752;2024-02-23T02:22:58;98707.28;;;4.73;73.57
70343;BME280;57767;42.068;24.752;2024-02-23T02:24:00;98702.34;;;4.78;73.38
70343;BME280;57767;42.068;24.752;2024-02-23T02:25:02;98715.53;;;4.85;73.79
70343;BME280;57767;42.068;24.752;2024-02-23T02:26:03;98710.19;;;4.78;73.92
70343;BME280;57767;42.068;24.752;2024-02-23T02:27:05;98718.06;;;4.70;73.93
70343;BME280;57767;42.068;24.752;2024-02-23T02:28:08;98710.28;;;4.62;74.15
70343;BME280;57767;42.068;24.752;2024-02-23T02:29:09;98716.34;;;4.62;74.85
70343;BME280;57767;42.068;24.752;2024-02-23T02:30:12;98714.59;;;4.55;74.95
70343;BME280;57767;42.068;24.752;2024-02-23T02:31:14;98706.94;;;4.53;74.49
70343;BME280;57767;42.068;24.752;2024-02-23T02:32:15;98712.44;;;4.58;74.80
70343;BME280;57767;42.068;24.752;2024-02-23T02:33:17;98715.88;;;4.59;74.54
70343;BME280;57767;42.068;24.752;2024-02-23T02:34:19;98720.59;;;4.63;74.30
70343;BME280;57767;42.068;24.752;2024-02-23T02:35:20;98715.19;;;4.65;73.60
70343;BME280;57767;42.068;24.752;2024-02-23T02:36:22;98699.38;;;4.58;74.31
70343;BME280;57767;42.068;24.752;2024-02-23T02:37:23;98712.75;;;4.63;73.92
70343;BME280;57767;42.068;24.752;2024-02-23T02:38:25;98718.13;;;4.62;74.39
70343;BME280;57767;42.068;24.752;2024-02-23T02:39:27;98716.69;;;4.59;73.97
70343;BME280;57767;42.068;24.752;2024-02-23T02:40:29;98722.72;;;4.60;73.84
70343;BME280;57767;42.068;24.752;2024-02-23T02:41:31;98713.13;;;4.52;75.01
70343;BME280;57767;42.068;24.752;2024-02-23T02:42:33;98722.72;;;4.60;75.02
70343;BME280;57767;42.068;24.752;2024-02-23T02:43:34;98720.28;;;4.58;74.84
70343;BME280;57767;42.068;24.752;2024-02-23T02:44:36;98718.47;;;4.59;75.03
70343;BME280;57767;42.068;24.752;2024-02-23T02:45:38;98713.78;;;4.54;75.70
70343;BME280;57767;42.068;24.752;2024-02-23T02:46:40;98716.69;;;4.59;75.27
70343;BME280;57767;42.068;24.752;2024-02-23T02:47:42;98715.22;;;4.57;74.68
70343;BME280;57767;42.068;24.752;2024-02-23T02:48:44;98722.38;;;4.63;73.77
70343;BME280;57767;42.068;24.752;2024-02-23T02:49:45;98718.66;;;4.57;74.35
70343;BME280;57767;42.068;24.752;2024-02-23T02:50:47;98721.00;;;4.52;75.36
70343;BME280;57767;42.068;24.752;2024-02-23T02:51:51;98715.16;;;4.42;75.27
70343;BME280;57767;42.068;24.752;2024-02-23T02:52:53;98708.66;;;4.38;76.23
70343;BME280;57767;42.068;24.752;2024-02-23T02:53:54;98718.78;;;4.33;76.22
70343;BME280;57767;42.068;24.752;2024-02-23T02:54:56;98723.50;;;4.38;75.84
70343;BME280;57767;42.068;24.752;2024-02-23T02:55:58;98712.88;;;4.39;76.37
70343;BME280;57767;42.068;24.752;2024-02-23T02:56:59;98720.41;;;4.42;76.40
70343;BME280;57767;42.068;24.752;2024-02-23T02:58:01;98719.41;;;4.43;75.61
70343;BME280;57767;42.068;24.752;2024-02-23T02:59:03;98711.56;;;4.43;75.42
70343;BME280;57767;42.068;24.752;2024-02-23T03:00:05;98711.38;;;4.45;75.45
70343;BME280;57767;42.068;24.752;2024-02-23T03:01:07;98718.41;;;4.44;76.04
70343;BME280;57767;42.068;24.752;2024-02-23T03:02:10;98710.63;;;4.36;76.46
70343;BME280;57767;42.068;24.752;2024-02-23T03:03:11;98717.16;;;4.32;76.16
70343;BME280;57767;42.068;24.752;2024-02-23T03:04:14;98717.81;;;4.34;76.23
70343;BME280;57767;42.068;24.752;2024-02-23T03:05:15;98717.47;;;4.37;76.11
70343;BME280;57767;42.068;24.752;2024-02-23T03:06:17;98714.53;;;4.32;76.18
70343;BME280;57767;42.068;24.752;2024-02-23T03:07:19;98715.19;;;4.34;76.68
70343;BME280;57767;42.068;24.752;2024-02-23T03:08:22;98727.59;;;4.40;75.72
70343;BME280;57767;42.068;24.752;2024-02-23T03:09:24;98721.53;;;4.40;75.63
70343;BME280;57767;42.068;24.752;2024-02-23T03:10:26;98724.00;;;4.41;75.55
70343;BME280;57767;42.068;24.752;2024-02-23T03:11:27;98719.75;;;4.40;75.71
70343;BME280;57767;42.068;24.752;2024-02-23T03:12:29;98724.63;;;4.43;76.07
70343;BME280;57767;42.068;24.752;2024-02-23T03:13:30;98731.31;;;4.46;75.51
70343;BME280;57767;42.068;24.752;2024-02-23T03:14:33;98729.66;;;4.45;75.11
70343;BME280;57767;42.068;24.752;2024-02-23T03:15:39;98721.53;;;4.40;74.45
70343;BME280;57767;42.068;24.752;2024-02-23T03:16:41;98723.81;;;4.43;73.77
70343;BME280;57767;42.068;24.752;2024-02-23T03:17:43;98735.72;;;4.45;74.25
70343;BME280;57767;42.068;24.752;2024-02-23T03:18:45;98732.13;;;4.46;74.39
70343;BME280;57767;42.068;24.752;2024-02-23T03:19:47;98739.63;;;4.49;74.73
70343;BME280;57767;42.068;24.752;2024-02-23T03:20:49;98743.88;;;4.50;74.78
70343;BME280;57767;42.068;24.752;2024-02-23T03:21:50;98747.13;;;4.52;74.86
70343;BME280;57767;42.068;24.752;2024-02-23T03:22:52;98726.06;;;4.46;75.19
70343;BME280;57767;42.068;24.752;2024-02-23T03:23:54;98729.50;;;4.46;75.30
70343;BME280;57767;42.068;24.752;2024-02-23T03:24:55;98729.50;;;4.46;75.19
70343;BME280;57767;42.068;24.752;2024-02-23T03:25:57;98731.31;;;4.46;75.81
70343;BME280;57767;42.068;24.752;2024-02-23T03:26:59;98724.91;;;4.48;75.28
70343;BME280;57767;42.068;24.752;2024-02-23T03:28:01;98730.16;;;4.48;75.43
70343;BME280;57767;42.068;24.752;2024-02-23T03:29:03;98737.34;;;4.46;75.17
70343;BME280;57767;42.068;24.752;2024-02-23T03:30:05;98744.53;;;4.44;75.32
70343;BME280;57767;42.068;24.752;2024-02-23T03:31:09;98748.63;;;4.47;75.38
70343;BME280;57767;42.068;24.752;2024-02-23T03:32:10;98744.84;;;4.49;75.34
70343;BME280;57767;42.068;24.752;2024-02-23T03:33:12;98743.88;;;4.50;75.20
70343;BME280;57767;42.068;24.752;2024-02-23T03:34:14;98734.72;;;4.46;75.91
70343;BME280;57767;42.068;24.752;2024-02-23T03:35:15;98736.38;;;4.47;75.69
70343;BME280;57767;42.068;24.752;2024-02-23T03:36:17;98737.00;;;4.49;75.84
70343;BME280;57767;42.068;24.752;2024-02-23T03:37:19;98736.03;;;4.50;75.44
70343;BME280;57767;42.068;24.752;2024-02-23T03:38:20;98737.00;;;4.49;75.71
70343;BME280;57767;42.068;24.752;2024-02-23T03:39:22;98743.22;;;4.48;75.27
70343;BME280;57767;42.068;24.752;2024-02-23T03:40:24;98735.88;;;4.44;75.83
70343;BME280;57767;42.068;24.752;2024-02-23T03:41:25;98737.06;;;4.41;75.43
70343;BME280;57767;42.068;24.752;2024-02-23T03:42:28;98735.09;;;4.43;75.80
70343;BME280;57767;42.068;24.752;2024-02-23T03:43:29;98742.28;;;4.41;76.00
70343;BME280;57767;42.068;24.752;2024-02-23T03:44:34;98746.38;;;4.36;76.09
70343;BME280;57767;42.068;24.752;2024-02-23T03:45:36;98738.44;;;4.29;76.58
70343;BME280;57767;42.068;24.752;2024-02-23T03:46:38;98738.06;;;4.32;75.78
70343;BME280;57767;42.068;24.752;2024-02-23T03:47:39;98732.84;;;4.32;75.86
70343;BME280;57767;42.068;24.752;2024-02-23T03:48:43;98739.03;;;4.31;75.39
70343;BME280;57767;42.068;24.752;2024-02-23T03:49:46;98727.31;;;4.27;75.79
70343;BME280;57767;42.068;24.752;2024-02-23T03:50:48;98748.34;;;4.33;75.30
70343;BME280;57767;42.068;24.752;2024-02-23T03:51:49;98713.28;;;4.20;75.63
70343;BME280;57767;42.068;24.752;2024-02-23T03:52:51;98734.03;;;4.29;76.24
70343;BME280;57767;42.068;24.752;2024-02-23T03:53:52;98740.69;;;4.32;75.45
70343;BME280;57767;42.068;24.752;2024-02-23T03:54:54;98728.16;;;4.27;75.75
70343;BME280;57767;42.068;24.752;2024-02-23T03:55:59;98739.88;;;4.31;75.33
70343;BME280;57767;42.068;24.752;2024-02-23T03:57:01;98742.47;;;4.31;75.40
70343;BME280;57767;42.068;24.752;2024-02-23T03:58:04;98732.56;;;4.19;75.62
70343;BME280;57767;42.068;24.752;2024-02-23T03:59:06;98745.31;;;4.22;75.08
70343;BME280;57767;42.068;24.752;2024-02-23T04:00:11;98744.97;;;4.25;75.08
70343;BME280;57767;42.068;24.752;2024-02-23T04:01:13;98743.19;;;4.25;75.27
70343;BME280;57767;42.068;24.752;2024-02-23T04:02:14;98737.94;;;4.25;75.18
70343;BME280;57767;42.068;24.752;2024-02-23T04:03:16;98741.03;;;4.29;75.23
70343;BME280;57767;42.068;24.752;2024-02-23T04:04:18;98746.72;;;4.32;75.28
70343;BME280;57767;42.068;24.752;2024-02-23T04:05:19;98742.31;;;4.33;75.60
70343;BME280;57767;42.068;24.752;2024-02-23T04:06:21;98748.34;;;4.33;75.47
70343;BME280;57767;42.068;24.752;2024-02-23T04:07:23;98740.88;;;4.30;76.02
70343;BME280;57767;42.068;24.752;2024-02-23T04:08:25;98744.75;;;4.35;75.63
70343;BME280;57767;42.068;24.752;2024-02-23T04:09:26;98737.44;;;4.30;75.43
70343;BME280;57767;42.068;24.752;2024-02-23T04:10:28;98737.44;;;4.30;75.75
70343;BME280;57767;42.068;24.752;2024-02-23T04:11:31;98739.69;;;4.33;75.96
70343;BME280;57767;42.068;24.752;2024-02-23T04:12:32;98733.81;;;4.31;76.08
70343;BME280;57767;42.068;24.752;2024-02-23T04:13:34;98723.75;;;4.20;76.24
70343;BME280;57767;42.068;24.752;2024-02-23T04:14:36;98741.22;;;4.19;76.31
70343;BME280;57767;42.068;24.752;2024-02-23T04:15:38;98732.44;;;4.12;76.32
70343;BME280;57767;42.068;24.752;2024-02-23T04:16:39;98740.41;;;4.19;76.48
70343;BME280;57767;42.068;24.752;2024-02-23T04:17:41;98741.44;;;4.18;76.33
70343;BME280;57767;42.068;24.752;2024-02-23T04:18:43;98738.81;;;4.18;76.59
70343;BME280;57767;42.068;24.752;2024-02-23T04:19:44;98734.09;;;4.13;76.54
70343;BME280;57767;42.068;24.752;2024-02-23T04:20:46;98732.28;;;4.14;76.89
70343;BME280;57767;42.068;24.752;2024-02-23T04:21:47;98737.19;;;4.17;76.81
70343;BME280;57767;42.068;24.752;2024-02-23T04:22:49;98739.47;;;4.12;76.39
70343;BME280;57767;42.068;24.752;2024-02-23T04:23:51;98745.56;;;3.96;77.32
70343;BME280;57767;42.068;24.752;2024-02-23T04:24:52;98745.44;;;3.89;77.25
70343;BME280;57767;42.068;24.752;2024-02-23T04:25:54;98748.69;;;3.91;77.62
70343;BME280;57767;42.068;24.752;2024-02-23T04:26:55;98733.03;;;3.83;77.66
70343;BME280;57767;42.068;24.752;2024-02-23T04:27:57;98743.16;;;3.86;78.57
70343;BME280;57767;42.068;24.752;2024-02-23T04:28:59;98739.22;;;3.90;78.63
70343;BME280;57767;42.068;24.752;2024-02-23T04:30:01;98739.06;;;3.92;78.63
70343;BME280;57767;42.068;24.752;2024-02-23T04:31:02;98734.19;;;3.89;78.87
70343;BME280;57767;42.068;24.752;2024-02-23T04:32:04;98738.75;;;3.87;78.41
70343;BME280;57767;42.068;24.752;2024-02-23T04:33:06;98737.44;;;3.91;78.43
70343;BME280;57767;42.068;24.752;2024-02-23T04:34:08;98734.31;;;3.95;77.72
70343;BME280;57767;42.068;24.752;2024-02-23T04:35:10;98737.41;;;3.99;77.75
70343;BME280;57767;42.068;24.752;2024-02-23T04:36:11;98738.25;;;3.91;78.06
70343;BME280;57767;42.068;24.752;2024-02-23T04:37:13;98745.13;;;3.84;78.52
70343;BME280;57767;42.068;24.752;2024-02-23T04:38:14;98742.22;;;3.71;78.74
70343;BME280;57767;42.068;24.752;2024-02-23T04:39:16;98737.97;;;3.70;79.29
70343;BME280;57767;42.068;24.752;2024-02-23T04:40:18;98736.66;;;3.74;79.37
70343;BME280;57767;42.068;24.752;2024-02-23T04:41:20;98733.88;;;3.76;79.09
70343;BME280;57767;42.068;24.752;2024-02-23T04:42:23;98744.81;;;3.79;79.71
70343;BME280;57767;42.068;24.752;2024-02-23T04:43:25;98720.19;;;3.74;78.87
70343;BME280;57767;42.068;24.752;2024-02-23T04:44:26;98733.72;;;3.77;79.42
70343;BME280;57767;42.068;24.752;2024-02-23T04:45:28;98725.22;;;3.75;78.91
70343;BME280;57767;42.068;24.752;2024-02-23T04:46:33;98733.72;;;3.69;78.77
70343;BME280;57767;42.068;24.752;2024-02-23T04:47:35;98733.88;;;3.76;78.63
70343;BME280;57767;42.068;24.752;2024-02-23T04:48:37;98727.53;;;3.78;79.25
70343;BME280;57767;42.068;24.752;2024-02-23T04:49:39;98729.59;;;3.83;79.15
70343;BME280;57767;42.068;24.752;2024-02-23T04:50:40;98726.84;;;3.84;78.00
70343;BME280;57767;42.068;24.752;2024-02-23T04:51:42;98732.38;;;3.89;77.98
70343;BME280;57767;42.068;24.752;2024-02-23T04:52:44;98733.03;;;3.91;77.46
70343;BME280;57767;42.068;24.752;2024-02-23T04:53:46;98729.44;;;3.92;77.68
70343;BME280;57767;42.068;24.752;2024-02-23T04:54:48;98733.03;;;3.91;77.83
70343;BME280;57767;42.068;24.752;2024-02-23T04:55:50;98733.03;;;3.91;77.95
70343;BME280;57767;42.068;24.752;2024-02-23T04:56:51;98731.69;;;3.95;77.12
70343;BME280;57767;42.068;24.752;2024-02-23T04:57:53;98729.78;;;3.89;77.12
70343;BME280;57767;42.068;24.752;2024-02-23T04:58:55;98732.22;;;3.91;77.13
70343;BME280;57767;42.068;24.752;2024-02-23T04:59:56;98736.63;;;3.90;77.21
70343;BME280;57767;42.068;24.752;2024-02-23T05:00:58;98749.00;;;3.96;76.85
70343;BME280;57767;42.068;24.752;2024-02-23T05:01:59;98743.44;;;4.00;77.06
70343;BME280;57767;42.068;24.752;2024-02-23T05:03:01;98754.53;;;4.02;76.79
70343;BME280;57767;42.068;24.752;2024-02-23T05:04:05;98748.34;;;3.94;77.08
70343;BME280;57767;42.068;24.752;2024-02-23T05:05:07;98759.13;;;4.00;77.12
70343;BME280;57767;42.068;24.752;2024-02-23T05:06:09;98751.59;;;3.96;77.47
70343;BME280;57767;42.068;24.752;2024-02-23T05:07:10;98752.41;;;3.97;76.91
70343;BME280;57767;42.068;24.752;2024-02-23T05:08:12;98749.53;;;3.92;77.18
70343;BME280;57767;42.068;24.752;2024-02-23T05:09:14;98744.09;;;3.93;76.59
70343;BME280;57767;42.068;24.752;2024-02-23T05:10:15;98753.44;;;3.88;77.05
70343;BME280;57767;42.068;24.752;2024-02-23T05:11:18;98748.38;;;3.86;76.92
70343;BME280;57767;42.068;24.752;2024-02-23T05:12:20;98743.31;;;3.85;77.03
70343;BME280;57767;42.068;24.752;2024-02-23T05:13:22;98737.28;;;3.84;76.40
70343;BME280;57767;42.068;24.752;2024-02-23T05:14:23;98745.63;;;3.80;77.45
70343;BME280;57767;42.068;24.752;2024-02-23T05:15:25;98750.03;;;3.79;77.72
70343;BME280;57767;42.068;24.752;2024-02-23T05:16:26;98745.97;;;3.77;77.75
70343;BME280;57767;42.068;24.752;2024-02-23T05:17:28;98757.03;;;3.87;77.33
70343;BME280;57767;42.068;24.752;2024-02-23T05:18:30;98757.50;;;3.90;77.35
70343;BME280;57767;42.068;24.752;2024-02-23T05:19:31;98758.78;;;3.94;77.35
70343;BME280;57767;42.068;24.752;2024-02-23T05:20:33;98758.34;;;3.91;77.77
70343;BME280;57767;42.068;24.752;2024-02-23T05:21:35;98754.09;;;3.82;78.45
70343;BME280;57767;42.068;24.752;2024-02-23T05:22:38;98762.09;;;3.80;79.11
70343;BME280;57767;42.068;24.752;2024-02-23T05:23:40;98759.31;;;3.82;79.24
70343;BME280;57767;42.068;24.752;2024-02-23T05:24:42;98757.34;;;3.84;78.72
70343;BME280;57767;42.068;24.752;2024-02-23T05:25:45;98761.09;;;3.89;78.75
70343;BME280;57767;42.068;24.752;2024-02-23T05:26:47;98754.75;;;3.92;78.44
70343;BME280;57767;42.068;24.752;2024-02-23T05:27:49;98760.91;;;3.99;77.70